Time;durP1;ratioP1;P1;durP2;ratioP2;P2;SDS_P1;SDS_P2;PMS_P1;PMS_P2;Temp;Humidity;BMP_temperature;BMP_pressure;BME280_temperature;BME280_humidity;BME280_pressure;Samples;Min_cycle;Max_cycle;Signal;HPM_P1;HPM_P2
2022/04/15 00:00:00;;;;;;;11.3;10.1;;;;;;;11.7;100.0;102200;;;;
2022/04/15 00:01:00;;;;;;;11.3;10.1;;;;;;;11.7;100.0;102190;;;;
2022/04/15 00:02:01;;;;;;;11.3;10.1;;;;;;;11.7;100.0;102190;;;;
2022/04/15 00:03:00;;;;;;;11.3;10.1;;;;;;;11.7;100.0;102200;;;;
2022/04/15 00:04:00;;;;;;;11.3;10.1;;;;;;;11.7;100.0;102200;;;;
2022/04/15 00:05:00;;;;;;;11.3;10.1;;;;;;;11.7;100.0;102200;;;;
2022/04/15 00:06:00;;;;;;;11.7;10.5;;;;;;;11.7;100.0;102200;;;;
2022/04/15 00:07:00;;;;;;;11.7;10.5;;;;;;;11.7;100.0;102200;;;;
2022/04/15 00:08:00;;;;;;;11.7;10.5;;;;;;;11.7;100.0;102200;;;;
2022/04/15 00:09:00;;;;;;;11.7;10.5;;;;;;;11.7;100.0;102200;;;;
2022/04/15 00:10:00;;;;;;;11.7;10.5;;;;;;;11.7;100.0;102200;;;;
2022/04/15 00:11:04;;;;;;;11.7;10.5;;;;;;;11.6;100.0;102210;;;;
2022/04/15 00:12:06;;;;;;;11.7;10.5;;;;;;;11.6;100.0;102210;;;;
2022/04/15 00:13:01;;;;;;;11.7;10.5;;;;;;;11.7;100.0;102210;;;;
2022/04/15 00:14:00;;;;;;;11.7;10.5;;;;;;;11.7;100.0;102210;;;;
2022/04/15 00:15:00;;;;;;;11.7;10.5;;;;;;;11.6;100.0;102200;;;;
2022/04/15 00:16:00;;;;;;;11.7;10.5;;;;;;;11.6;100.0;102200;;;;
2022/04/15 00:17:00;;;;;;;11.7;10.5;;;;;;;11.6;100.0;102200;;;;
2022/04/15 00:18:00;;;;;;;11.7;10.5;;;;;;;11.6;100.0;102200;;;;
2022/04/15 00:19:00;;;;;;;11.7;10.5;;;;;;;11.5;100.0;102200;;;;
2022/04/15 00:20:00;;;;;;;11.7;10.5;;;;;;;11.5;100.0;102200;;;;
2022/04/15 00:21:00;;;;;;;11.7;10.5;;;;;;;11.4;100.0;102200;;;;
2022/04/15 00:22:00;;;;;;;11.7;10.5;;;;;;;11.4;100.0;102200;;;;
2022/04/15 00:23:00;;;;;;;11.7;10.5;;;;;;;11.4;100.0;102200;;;;
2022/04/15 00:24:00;;;;;;;11.7;10.5;;;;;;;11.4;100.0;102200;;;;
2022/04/15 00:25:00;;;;;;;11.7;10.5;;;;;;;11.5;100.0;102200;;;;
2022/04/15 00:26:00;;;;;;;11.9;10.7;;;;;;;11.5;100.0;102200;;;;
2022/04/15 00:27:00;;;;;;;11.9;10.7;;;;;;;11.5;100.0;102200;;;;
2022/04/15 00:28:00;;;;;;;11.9;10.7;;;;;;;11.5;100.0;102200;;;;
2022/04/15 00:29:00;;;;;;;11.9;10.7;;;;;;;11.4;100.0;102200;;;;
2022/04/15 00:30:00;;;;;;;11.9;10.7;;;;;;;11.4;100.0;102200;;;;
2022/04/15 00:31:00;;;;;;;11.9;10.7;;;;;;;11.4;100.0;102200;;;;
2022/04/15 00:32:00;;;;;;;11.9;10.7;;;;;;;11.4;100.0;102200;;;;
2022/04/15 00:33:01;;;;;;;11.9;10.7;;;;;;;11.3;100.0;102210;;;;
2022/04/15 00:34:01;;;;;;;11.9;10.7;;;;;;;11.3;100.0;102210;;;;
2022/04/15 00:35:00;;;;;;;11.9;10.7;;;;;;;11.3;100.0;102210;;;;
2022/04/15 00:36:00;;;;;;;11.9;10.7;;;;;;;11.3;100.0;102210;;;;
2022/04/15 00:37:00;;;;;;;11.9;10.7;;;;;;;11.3;100.0;102210;;;;
2022/04/15 00:38:00;;;;;;;11.9;10.7;;;;;;;11.3;100.0;102210;;;;
2022/04/15 00:39:00;;;;;;;11.9;10.7;;;;;;;11.2;100.0;102210;;;;
2022/04/15 00:40:02;;;;;;;11.9;10.7;;;;;;;11.2;100.0;102210;;;;
2022/04/15 00:41:00;;;;;;;11.9;10.7;;;;;;;11.2;100.0;102220;;;;
2022/04/15 00:42:00;;;;;;;11.9;10.7;;;;;;;11.2;100.0;102220;;;;
2022/04/15 00:43:00;;;;;;;11.9;10.7;;;;;;;11.1;100.0;102220;;;;
2022/04/15 00:44:00;;;;;;;11.9;10.7;;;;;;;11.1;100.0;102220;;;;
2022/04/15 00:45:00;;;;;;;11.9;10.7;;;;;;;11.2;100.0;102230;;;;
2022/04/15 00:46:08;;;;;;;15.3;13.7;;;;;;;11.2;100.0;102230;;;;
2022/04/15 00:47:00;;;;;;;15.3;13.7;;;;;;;11.2;100.0;102220;;;;
2022/04/15 00:48:00;;;;;;;15.3;13.7;;;;;;;11.2;100.0;102220;;;;
2022/04/15 00:49:01;;;;;;;15.3;13.7;;;;;;;11.1;100.0;102220;;;;
2022/04/15 00:50:00;;;;;;;15.3;13.7;;;;;;;11.1;100.0;102220;;;;
2022/04/15 00:51:00;;;;;;;15.3;13.7;;;;;;;11.1;100.0;102220;;;;
2022/04/15 00:52:00;;;;;;;15.3;13.7;;;;;;;11.1;100.0;102220;;;;
2022/04/15 00:53:06;;;;;;;15.3;13.7;;;;;;;11.0;100.0;102220;;;;
2022/04/15 00:54:01;;;;;;;15.3;13.7;;;;;;;11.0;100.0;102220;;;;
2022/04/15 00:55:02;;;;;;;15.3;13.7;;;;;;;11.0;100.0;102220;;;;
2022/04/15 00:56:03;;;;;;;15.3;13.7;;;;;;;11.0;100.0;102220;;;;
2022/04/15 00:57:00;;;;;;;15.3;13.7;;;;;;;11.0;100.0;102220;;;;
2022/04/15 00:58:01;;;;;;;15.3;13.7;;;;;;;11.0;100.0;102220;;;;
2022/04/15 00:59:01;;;;;;;15.3;13.7;;;;;;;11.0;100.0;102230;;;;
2022/04/15 01:00:02;;;;;;;15.3;13.7;;;;;;;11.0;100.0;102230;;;;
2022/04/15 01:01:00;;;;;;;15.3;13.7;;;;;;;10.9;100.0;102230;;;;
2022/04/15 01:02:01;;;;;;;15.3;13.7;;;;;;;10.9;100.0;102230;;;;
2022/04/15 01:03:01;;;;;;;15.3;13.7;;;;;;;10.9;100.0;102230;;;;
2022/04/15 01:04:02;;;;;;;15.3;13.7;;;;;;;10.9;100.0;102230;;;;
2022/04/15 01:05:01;;;;;;;15.3;13.7;;;;;;;10.9;100.0;102230;;;;
2022/04/15 01:06:00;;;;;;;17.6;15.6;;;;;;;10.9;100.0;102230;;;;
2022/04/15 01:07:02;;;;;;;17.6;15.6;;;;;;;10.9;100.0;102220;;;;
2022/04/15 01:08:02;;;;;;;17.6;15.6;;;;;;;10.9;100.0;102220;;;;
2022/04/15 01:09:01;;;;;;;17.6;15.6;;;;;;;10.9;100.0;102220;;;;
2022/04/15 01:10:01;;;;;;;17.6;15.6;;;;;;;10.9;100.0;102220;;;;
2022/04/15 01:11:03;;;;;;;17.6;15.6;;;;;;;10.9;100.0;102230;;;;
2022/04/15 01:12:03;;;;;;;17.6;15.6;;;;;;;10.9;100.0;102230;;;;
2022/04/15 01:13:14;;;;;;;17.6;15.6;;;;;;;10.9;100.0;102230;;;;
2022/04/15 01:14:00;;;;;;;17.6;15.6;;;;;;;10.9;100.0;102230;;;;
2022/04/15 01:15:01;;;;;;;17.6;15.6;;;;;;;10.8;100.0;102230;;;;
2022/04/15 01:16:00;;;;;;;17.6;15.6;;;;;;;10.8;100.0;102230;;;;
2022/04/15 01:17:00;;;;;;;17.6;15.6;;;;;;;10.9;100.0;102230;;;;
2022/04/15 01:18:00;;;;;;;17.6;15.6;;;;;;;10.9;100.0;102230;;;;
2022/04/15 01:19:00;;;;;;;17.6;15.6;;;;;;;10.8;100.0;102230;;;;
2022/04/15 01:20:01;;;;;;;17.6;15.6;;;;;;;10.8;100.0;102230;;;;
2022/04/15 01:21:00;;;;;;;17.6;15.6;;;;;;;10.8;100.0;102230;;;;
2022/04/15 01:22:02;;;;;;;17.6;15.6;;;;;;;10.8;100.0;102230;;;;
2022/04/15 01:23:07;;;;;;;17.6;15.6;;;;;;;10.7;100.0;102230;;;;
2022/04/15 01:24:00;;;;;;;17.6;15.6;;;;;;;10.7;100.0;102230;;;;
2022/04/15 01:25:00;;;;;;;17.6;15.6;;;;;;;10.7;100.0;102240;;;;
2022/04/15 01:26:00;;;;;;;20.0;17.9;;;;;;;10.7;100.0;102240;;;;
2022/04/15 01:27:00;;;;;;;20.0;17.9;;;;;;;10.7;100.0;102240;;;;
2022/04/15 01:28:00;;;;;;;20.0;17.9;;;;;;;10.7;100.0;102240;;;;
2022/04/15 01:29:01;;;;;;;20.0;17.9;;;;;;;10.7;100.0;102240;;;;
2022/04/15 01:30:00;;;;;;;20.0;17.9;;;;;;;10.7;100.0;102240;;;;
2022/04/15 01:31:00;;;;;;;20.0;17.9;;;;;;;10.7;100.0;102240;;;;
2022/04/15 01:32:03;;;;;;;20.0;17.9;;;;;;;10.7;100.0;102240;;;;
2022/04/15 01:33:05;;;;;;;20.0;17.9;;;;;;;10.6;100.0;102250;;;;
2022/04/15 01:34:01;;;;;;;20.0;17.9;;;;;;;10.6;100.0;102250;;;;
2022/04/15 01:35:00;;;;;;;20.0;17.9;;;;;;;10.6;100.0;102250;;;;
2022/04/15 01:36:00;;;;;;;20.0;17.9;;;;;;;10.6;100.0;102250;;;;
2022/04/15 01:37:00;;;;;;;20.0;17.9;;;;;;;10.6;100.0;102250;;;;
2022/04/15 01:38:02;;;;;;;20.0;17.9;;;;;;;10.6;100.0;102250;;;;
2022/04/15 01:39:00;;;;;;;20.0;17.9;;;;;;;10.6;100.0;102240;;;;
2022/04/15 01:40:00;;;;;;;20.0;17.9;;;;;;;10.6;100.0;102240;;;;
2022/04/15 01:41:00;;;;;;;20.0;17.9;;;;;;;10.6;100.0;102250;;;;
2022/04/15 01:42:00;;;;;;;20.0;17.9;;;;;;;10.6;100.0;102250;;;;
2022/04/15 01:43:00;;;;;;;20.0;17.9;;;;;;;10.6;100.0;102240;;;;
2022/04/15 01:44:05;;;;;;;20.0;17.9;;;;;;;10.6;100.0;102240;;;;
2022/04/15 01:45:00;;;;;;;20.0;17.9;;;;;;;10.5;100.0;102250;;;;
2022/04/15 01:46:00;;;;;;;22.2;19.9;;;;;;;10.5;100.0;102250;;;;
2022/04/15 01:47:00;;;;;;;22.2;19.9;;;;;;;10.6;100.0;102250;;;;
2022/04/15 01:48:00;;;;;;;22.2;19.9;;;;;;;10.6;100.0;102250;;;;
2022/04/15 01:49:00;;;;;;;22.2;19.9;;;;;;;10.5;100.0;102250;;;;
2022/04/15 01:50:00;;;;;;;22.2;19.9;;;;;;;10.5;100.0;102250;;;;
2022/04/15 01:51:00;;;;;;;22.2;19.9;;;;;;;10.5;100.0;102250;;;;
2022/04/15 01:52:00;;;;;;;22.2;19.9;;;;;;;10.5;100.0;102250;;;;
2022/04/15 01:53:01;;;;;;;22.2;19.9;;;;;;;10.5;100.0;102250;;;;
2022/04/15 01:54:00;;;;;;;22.2;19.9;;;;;;;10.5;100.0;102250;;;;
2022/04/15 01:55:00;;;;;;;22.2;19.9;;;;;;;10.5;100.0;102250;;;;
2022/04/15 01:56:00;;;;;;;22.2;19.9;;;;;;;10.5;100.0;102250;;;;
2022/04/15 01:57:00;;;;;;;22.2;19.9;;;;;;;10.4;100.0;102250;;;;
2022/04/15 01:58:00;;;;;;;22.2;19.9;;;;;;;10.4;100.0;102250;;;;
2022/04/15 01:59:00;;;;;;;22.2;19.9;;;;;;;10.4;100.0;102250;;;;
2022/04/15 02:00:00;;;;;;;22.2;19.9;;;;;;;10.4;100.0;102250;;;;
2022/04/15 02:01:00;;;;;;;22.2;19.9;;;;;;;10.4;100.0;102250;;;;
2022/04/15 02:02:01;;;;;;;22.2;19.9;;;;;;;10.4;100.0;102250;;;;
2022/04/15 02:03:00;;;;;;;22.2;19.9;;;;;;;10.4;100.0;102250;;;;
2022/04/15 02:04:00;;;;;;;22.2;19.9;;;;;;;10.4;100.0;102250;;;;
2022/04/15 02:05:00;;;;;;;23.3;20.8;;;;;;;10.4;100.0;102260;;;;
2022/04/15 02:06:00;;;;;;;23.3;20.8;;;;;;;10.4;100.0;102260;;;;
2022/04/15 02:07:00;;;;;;;23.3;20.8;;;;;;;10.4;100.0;102260;;;;
2022/04/15 02:08:00;;;;;;;23.3;20.8;;;;;;;10.4;100.0;102260;;;;
2022/04/15 02:09:00;;;;;;;23.3;20.8;;;;;;;10.3;100.0;102260;;;;
2022/04/15 02:10:00;;;;;;;23.3;20.8;;;;;;;10.3;100.0;102260;;;;
2022/04/15 02:11:00;;;;;;;23.3;20.8;;;;;;;10.3;100.0;102260;;;;
2022/04/15 02:12:00;;;;;;;23.3;20.8;;;;;;;10.3;100.0;102260;;;;
2022/04/15 02:13:00;;;;;;;23.3;20.8;;;;;;;10.2;100.0;102260;;;;
2022/04/15 02:14:00;;;;;;;23.3;20.8;;;;;;;10.2;100.0;102260;;;;
2022/04/15 02:15:00;;;;;;;23.3;20.8;;;;;;;10.2;100.0;102260;;;;
2022/04/15 02:16:00;;;;;;;23.3;20.8;;;;;;;10.2;100.0;102260;;;;
2022/04/15 02:17:00;;;;;;;23.3;20.8;;;;;;;10.2;100.0;102260;;;;
2022/04/15 02:18:00;;;;;;;23.3;20.8;;;;;;;10.2;100.0;102260;;;;
2022/04/15 02:19:00;;;;;;;23.3;20.8;;;;;;;10.2;100.0;102260;;;;
2022/04/15 02:20:00;;;;;;;23.3;20.8;;;;;;;10.2;100.0;102260;;;;
2022/04/15 02:21:00;;;;;;;23.3;20.8;;;;;;;10.1;100.0;102260;;;;
2022/04/15 02:22:00;;;;;;;23.3;20.8;;;;;;;10.1;100.0;102260;;;;
2022/04/15 02:23:00;;;;;;;23.3;20.8;;;;;;;10.1;100.0;102270;;;;
2022/04/15 02:24:00;;;;;;;23.3;20.8;;;;;;;10.1;100.0;102270;;;;
2022/04/15 02:25:00;;;;;;;24.9;22.2;;;;;;;10.1;100.0;102270;;;;
2022/04/15 02:26:00;;;;;;;24.9;22.2;;;;;;;10.1;100.0;102270;;;;
2022/04/15 02:27:00;;;;;;;24.9;22.2;;;;;;;10.1;100.0;102270;;;;
2022/04/15 02:28:00;;;;;;;24.9;22.2;;;;;;;10.1;100.0;102270;;;;
2022/04/15 02:29:00;;;;;;;24.9;22.2;;;;;;;10.1;100.0;102270;;;;
2022/04/15 02:30:00;;;;;;;24.9;22.2;;;;;;;10.1;100.0;102270;;;;
2022/04/15 02:31:00;;;;;;;24.9;22.2;;;;;;;10.1;100.0;102270;;;;
2022/04/15 02:32:00;;;;;;;24.9;22.2;;;;;;;10.1;100.0;102270;;;;
2022/04/15 02:33:00;;;;;;;24.9;22.2;;;;;;;10.1;100.0;102280;;;;
2022/04/15 02:34:00;;;;;;;24.9;22.2;;;;;;;10.1;100.0;102280;;;;
2022/04/15 02:35:00;;;;;;;24.9;22.2;;;;;;;10.1;100.0;102280;;;;
2022/04/15 02:36:00;;;;;;;24.9;22.2;;;;;;;10.1;100.0;102280;;;;
2022/04/15 02:37:00;;;;;;;24.9;22.2;;;;;;;10.0;100.0;102280;;;;
2022/04/15 02:38:00;;;;;;;24.9;22.2;;;;;;;10.0;100.0;102280;;;;
2022/04/15 02:39:00;;;;;;;24.9;22.2;;;;;;;10.0;100.0;102280;;;;
2022/04/15 02:40:00;;;;;;;24.9;22.2;;;;;;;10.0;100.0;102280;;;;
2022/04/15 02:41:01;;;;;;;24.9;22.2;;;;;;;9.9;100.0;102280;;;;
2022/04/15 02:42:00;;;;;;;24.9;22.2;;;;;;;9.9;100.0;102280;;;;
2022/04/15 02:43:00;;;;;;;24.9;22.2;;;;;;;9.9;100.0;102280;;;;
2022/04/15 02:44:00;;;;;;;24.9;22.2;;;;;;;9.9;100.0;102280;;;;
2022/04/15 02:45:01;;;;;;;24.3;21.8;;;;;;;9.9;100.0;102280;;;;
2022/04/15 02:46:02;;;;;;;24.3;21.8;;;;;;;9.9;100.0;102280;;;;
2022/04/15 02:47:00;;;;;;;24.3;21.8;;;;;;;9.9;100.0;102280;;;;
2022/04/15 02:48:00;;;;;;;24.3;21.8;;;;;;;9.9;100.0;102280;;;;
2022/04/15 02:49:00;;;;;;;24.3;21.8;;;;;;;9.8;100.0;102280;;;;
2022/04/15 02:50:00;;;;;;;24.3;21.8;;;;;;;9.8;100.0;102280;;;;
2022/04/15 02:51:00;;;;;;;24.3;21.8;;;;;;;9.9;100.0;102280;;;;
2022/04/15 02:52:00;;;;;;;24.3;21.8;;;;;;;9.9;100.0;102280;;;;
2022/04/15 02:53:01;;;;;;;24.3;21.8;;;;;;;9.8;100.0;102280;;;;
2022/04/15 02:54:00;;;;;;;24.3;21.8;;;;;;;9.8;100.0;102280;;;;
2022/04/15 02:55:00;;;;;;;24.3;21.8;;;;;;;9.8;100.0;102280;;;;
2022/04/15 02:56:00;;;;;;;24.3;21.8;;;;;;;9.8;100.0;102280;;;;
2022/04/15 02:57:00;;;;;;;24.3;21.8;;;;;;;9.8;100.0;102280;;;;
2022/04/15 02:58:00;;;;;;;24.3;21.8;;;;;;;9.8;100.0;102280;;;;
2022/04/15 02:59:00;;;;;;;24.3;21.8;;;;;;;9.8;100.0;102280;;;;
2022/04/15 03:00:00;;;;;;;24.3;21.8;;;;;;;9.8;100.0;102280;;;;
2022/04/15 03:01:01;;;;;;;24.3;21.8;;;;;;;9.8;100.0;102280;;;;
2022/04/15 03:02:00;;;;;;;24.3;21.8;;;;;;;9.8;100.0;102280;;;;
2022/04/15 03:03:00;;;;;;;24.3;21.8;;;;;;;9.6;100.0;102290;;;;
2022/04/15 03:04:00;;;;;;;24.3;21.8;;;;;;;9.6;100.0;102290;;;;
2022/04/15 03:05:01;;;;;;;24.2;21.7;;;;;;;9.6;100.0;102290;;;;
2022/04/15 03:06:02;;;;;;;24.2;21.7;;;;;;;9.6;100.0;102290;;;;
2022/04/15 03:07:00;;;;;;;24.2;21.7;;;;;;;9.7;100.0;102290;;;;
2022/04/15 03:08:00;;;;;;;24.2;21.7;;;;;;;9.7;100.0;102290;;;;
2022/04/15 03:09:00;;;;;;;24.2;21.7;;;;;;;9.6;100.0;102290;;;;
2022/04/15 03:10:00;;;;;;;24.2;21.7;;;;;;;9.6;100.0;102290;;;;
2022/04/15 03:11:00;;;;;;;24.2;21.7;;;;;;;9.5;100.0;102280;;;;
2022/04/15 03:12:00;;;;;;;24.2;21.7;;;;;;;9.5;100.0;102280;;;;
2022/04/15 03:13:01;;;;;;;24.2;21.7;;;;;;;9.6;100.0;102290;;;;
2022/04/15 03:14:00;;;;;;;24.2;21.7;;;;;;;9.6;100.0;102290;;;;
2022/04/15 03:15:00;;;;;;;24.2;21.7;;;;;;;9.6;100.0;102280;;;;
2022/04/15 03:16:00;;;;;;;24.2;21.7;;;;;;;9.6;100.0;102280;;;;
2022/04/15 03:17:00;;;;;;;24.2;21.7;;;;;;;9.6;100.0;102280;;;;
2022/04/15 03:18:00;;;;;;;24.2;21.7;;;;;;;9.6;100.0;102280;;;;
2022/04/15 03:19:00;;;;;;;24.2;21.7;;;;;;;9.5;100.0;102290;;;;
2022/04/15 03:20:03;;;;;;;24.2;21.7;;;;;;;9.5;100.0;102290;;;;
2022/04/15 03:21:00;;;;;;;24.2;21.7;;;;;;;9.5;100.0;102290;;;;
2022/04/15 03:22:00;;;;;;;24.2;21.7;;;;;;;9.5;100.0;102290;;;;
2022/04/15 03:23:00;;;;;;;24.2;21.7;;;;;;;9.4;100.0;102290;;;;
2022/04/15 03:24:00;;;;;;;24.2;21.7;;;;;;;9.4;100.0;102290;;;;
2022/04/15 03:25:00;;;;;;;25.4;22.7;;;;;;;9.5;100.0;102290;;;;
2022/04/15 03:26:00;;;;;;;25.4;22.7;;;;;;;9.5;100.0;102290;;;;
2022/04/15 03:27:00;;;;;;;25.4;22.7;;;;;;;9.6;100.0;102300;;;;
2022/04/15 03:28:00;;;;;;;25.4;22.7;;;;;;;9.6;100.0;102300;;;;
2022/04/15 03:29:00;;;;;;;25.4;22.7;;;;;;;9.6;100.0;102300;;;;
2022/04/15 03:30:00;;;;;;;25.4;22.7;;;;;;;9.6;100.0;102300;;;;
2022/04/15 03:31:00;;;;;;;25.4;22.7;;;;;;;9.5;100.0;102300;;;;
2022/04/15 03:32:00;;;;;;;25.4;22.7;;;;;;;9.5;100.0;102300;;;;
2022/04/15 03:33:00;;;;;;;25.4;22.7;;;;;;;9.5;100.0;102300;;;;
2022/04/15 03:34:00;;;;;;;25.4;22.7;;;;;;;9.5;100.0;102300;;;;
2022/04/15 03:35:00;;;;;;;25.4;22.7;;;;;;;9.5;100.0;102300;;;;
2022/04/15 03:36:00;;;;;;;25.4;22.7;;;;;;;9.5;100.0;102300;;;;
2022/04/15 03:37:00;;;;;;;25.4;22.7;;;;;;;9.4;100.0;102300;;;;
2022/04/15 03:38:00;;;;;;;25.4;22.7;;;;;;;9.4;100.0;102300;;;;
2022/04/15 03:39:00;;;;;;;25.4;22.7;;;;;;;9.2;100.0;102300;;;;
2022/04/15 03:40:00;;;;;;;25.4;22.7;;;;;;;9.2;100.0;102300;;;;
2022/04/15 03:41:00;;;;;;;25.4;22.7;;;;;;;9.2;100.0;102300;;;;
2022/04/15 03:42:01;;;;;;;25.4;22.7;;;;;;;9.2;100.0;102300;;;;
2022/04/15 03:43:01;;;;;;;25.4;22.7;;;;;;;9.3;100.0;102300;;;;
2022/04/15 03:44:01;;;;;;;25.4;22.7;;;;;;;9.3;100.0;102300;;;;
2022/04/15 03:45:01;;;;;;;30.7;25.0;;;;;;;9.5;100.0;102300;;;;
2022/04/15 03:46:00;;;;;;;30.7;25.0;;;;;;;9.5;100.0;102300;;;;
2022/04/15 03:47:00;;;;;;;30.7;25.0;;;;;;;9.4;100.0;102310;;;;
2022/04/15 03:48:00;;;;;;;30.7;25.0;;;;;;;9.4;100.0;102310;;;;
2022/04/15 03:49:00;;;;;;;30.7;25.0;;;;;;;9.6;100.0;102310;;;;
2022/04/15 03:50:00;;;;;;;30.7;25.0;;;;;;;9.6;100.0;102310;;;;
2022/04/15 03:51:00;;;;;;;30.7;25.0;;;;;;;9.6;100.0;102310;;;;
2022/04/15 03:52:00;;;;;;;30.7;25.0;;;;;;;9.6;100.0;102310;;;;
2022/04/15 03:53:00;;;;;;;30.7;25.0;;;;;;;9.6;100.0;102320;;;;
2022/04/15 03:54:00;;;;;;;30.7;25.0;;;;;;;9.6;100.0;102320;;;;
2022/04/15 03:55:00;;;;;;;30.7;25.0;;;;;;;9.7;100.0;102320;;;;
2022/04/15 03:56:00;;;;;;;30.7;25.0;;;;;;;9.7;100.0;102320;;;;
2022/04/15 03:57:00;;;;;;;30.7;25.0;;;;;;;9.7;100.0;102320;;;;
2022/04/15 03:58:00;;;;;;;30.7;25.0;;;;;;;9.7;100.0;102320;;;;
2022/04/15 03:59:00;;;;;;;30.7;25.0;;;;;;;9.6;100.0;102320;;;;
2022/04/15 04:00:00;;;;;;;30.7;25.0;;;;;;;9.6;100.0;102320;;;;
2022/04/15 04:01:00;;;;;;;30.7;25.0;;;;;;;9.6;100.0;102330;;;;
2022/04/15 04:02:00;;;;;;;30.7;25.0;;;;;;;9.6;100.0;102330;;;;
2022/04/15 04:03:00;;;;;;;30.7;25.0;;;;;;;9.6;100.0;102320;;;;
2022/04/15 04:04:00;;;;;;;30.7;25.0;;;;;;;9.6;100.0;102320;;;;
2022/04/15 04:05:00;;;;;;;28.6;23.8;;;;;;;9.6;100.0;102330;;;;
2022/04/15 04:06:00;;;;;;;28.6;23.8;;;;;;;9.6;100.0;102330;;;;
2022/04/15 04:07:00;;;;;;;28.6;23.8;;;;;;;9.6;100.0;102330;;;;
2022/04/15 04:08:00;;;;;;;28.6;23.8;;;;;;;9.6;100.0;102330;;;;
2022/04/15 04:09:00;;;;;;;28.6;23.8;;;;;;;9.5;100.0;102330;;;;
2022/04/15 04:10:00;;;;;;;28.6;23.8;;;;;;;9.5;100.0;102330;;;;
2022/04/15 04:11:00;;;;;;;28.6;23.8;;;;;;;9.3;100.0;102330;;;;
2022/04/15 04:12:00;;;;;;;28.6;23.8;;;;;;;9.3;100.0;102330;;;;
2022/04/15 04:13:02;;;;;;;28.6;23.8;;;;;;;9.2;100.0;102330;;;;
2022/04/15 04:14:00;;;;;;;28.6;23.8;;;;;;;9.2;100.0;102330;;;;
2022/04/15 04:15:01;;;;;;;28.6;23.8;;;;;;;9.3;100.0;102330;;;;
2022/04/15 04:16:00;;;;;;;28.6;23.8;;;;;;;9.3;100.0;102330;;;;
2022/04/15 04:17:00;;;;;;;28.6;23.8;;;;;;;9.4;100.0;102330;;;;
2022/04/15 04:18:00;;;;;;;28.6;23.8;;;;;;;9.4;100.0;102330;;;;
2022/04/15 04:19:00;;;;;;;28.6;23.8;;;;;;;9.4;100.0;102330;;;;
2022/04/15 04:20:01;;;;;;;28.6;23.8;;;;;;;9.4;100.0;102330;;;;
2022/04/15 04:21:00;;;;;;;28.6;23.8;;;;;;;9.4;100.0;102340;;;;
2022/04/15 04:22:00;;;;;;;28.6;23.8;;;;;;;9.4;100.0;102340;;;;
2022/04/15 04:23:00;;;;;;;28.6;23.8;;;;;;;9.2;100.0;102340;;;;
2022/04/15 04:24:00;;;;;;;28.6;23.8;;;;;;;9.2;100.0;102340;;;;
2022/04/15 04:25:00;;;;;;;27.3;20.6;;;;;;;9.3;100.0;102340;;;;
2022/04/15 04:26:00;;;;;;;27.3;20.6;;;;;;;9.3;100.0;102340;;;;
2022/04/15 04:27:00;;;;;;;27.3;20.6;;;;;;;9.0;100.0;102350;;;;
2022/04/15 04:28:00;;;;;;;27.3;20.6;;;;;;;9.0;100.0;102350;;;;
2022/04/15 04:29:00;;;;;;;27.3;20.6;;;;;;;8.7;100.0;102350;;;;
2022/04/15 04:30:00;;;;;;;27.3;20.6;;;;;;;8.7;100.0;102350;;;;
2022/04/15 04:31:00;;;;;;;27.3;20.6;;;;;;;8.6;100.0;102350;;;;
2022/04/15 04:32:00;;;;;;;27.3;20.6;;;;;;;8.6;100.0;102350;;;;
2022/04/15 04:33:01;;;;;;;27.3;20.6;;;;;;;8.7;100.0;102350;;;;
2022/04/15 04:34:00;;;;;;;27.3;20.6;;;;;;;8.7;100.0;102350;;;;
2022/04/15 04:35:00;;;;;;;27.3;20.6;;;;;;;8.6;100.0;102360;;;;
2022/04/15 04:36:00;;;;;;;27.3;20.6;;;;;;;8.6;100.0;102360;;;;
2022/04/15 04:37:00;;;;;;;27.3;20.6;;;;;;;8.5;100.0;102360;;;;
2022/04/15 04:38:00;;;;;;;27.3;20.6;;;;;;;8.5;100.0;102360;;;;
2022/04/15 04:39:00;;;;;;;27.3;20.6;;;;;;;8.6;100.0;102360;;;;
2022/04/15 04:40:00;;;;;;;27.3;20.6;;;;;;;8.6;100.0;102360;;;;
2022/04/15 04:41:00;;;;;;;27.3;20.6;;;;;;;8.4;100.0;102360;;;;
2022/04/15 04:42:00;;;;;;;27.3;20.6;;;;;;;8.4;100.0;102360;;;;
2022/04/15 04:43:00;;;;;;;27.3;20.6;;;;;;;8.4;100.0;102360;;;;
2022/04/15 04:44:00;;;;;;;27.3;20.6;;;;;;;8.4;100.0;102360;;;;
2022/04/15 04:45:00;;;;;;;26.1;15.9;;;;;;;8.4;100.0;102360;;;;
2022/04/15 04:46:00;;;;;;;26.1;15.9;;;;;;;8.4;100.0;102360;;;;
2022/04/15 04:47:00;;;;;;;26.1;15.9;;;;;;;8.5;100.0;102370;;;;
2022/04/15 04:48:01;;;;;;;26.1;15.9;;;;;;;8.5;100.0;102370;;;;
2022/04/15 04:49:00;;;;;;;26.1;15.9;;;;;;;8.5;100.0;102370;;;;
2022/04/15 04:50:01;;;;;;;26.1;15.9;;;;;;;8.5;100.0;102370;;;;
2022/04/15 04:51:00;;;;;;;26.1;15.9;;;;;;;8.7;100.0;102370;;;;
2022/04/15 04:52:00;;;;;;;26.1;15.9;;;;;;;8.7;100.0;102370;;;;
2022/04/15 04:53:01;;;;;;;26.1;15.9;;;;;;;8.6;100.0;102370;;;;
2022/04/15 04:54:00;;;;;;;26.1;15.9;;;;;;;8.6;100.0;102370;;;;
2022/04/15 04:55:00;;;;;;;26.1;15.9;;;;;;;8.6;100.0;102370;;;;
2022/04/15 04:56:00;;;;;;;26.1;15.9;;;;;;;8.6;100.0;102370;;;;
2022/04/15 04:57:00;;;;;;;26.1;15.9;;;;;;;8.8;100.0;102370;;;;
2022/04/15 04:58:00;;;;;;;26.1;15.9;;;;;;;8.8;100.0;102370;;;;
2022/04/15 04:59:00;;;;;;;26.1;15.9;;;;;;;8.8;100.0;102370;;;;
2022/04/15 05:00:00;;;;;;;26.1;15.9;;;;;;;8.8;100.0;102370;;;;
2022/04/15 05:01:00;;;;;;;26.1;15.9;;;;;;;8.9;100.0;102370;;;;
2022/04/15 05:02:00;;;;;;;26.1;15.9;;;;;;;8.9;100.0;102370;;;;
2022/04/15 05:03:01;;;;;;;26.1;15.9;;;;;;;8.9;100.0;102380;;;;
2022/04/15 05:04:00;;;;;;;26.1;15.9;;;;;;;8.9;100.0;102380;;;;
2022/04/15 05:05:00;;;;;;;20.3;18.3;;;;;;;8.9;100.0;102380;;;;
2022/04/15 05:06:00;;;;;;;20.3;18.3;;;;;;;8.9;100.0;102380;;;;
2022/04/15 05:07:00;;;;;;;20.3;18.3;;;;;;;9.0;100.0;102390;;;;
2022/04/15 05:08:00;;;;;;;20.3;18.3;;;;;;;9.0;100.0;102390;;;;
2022/04/15 05:09:00;;;;;;;20.3;18.3;;;;;;;9.1;100.0;102390;;;;
2022/04/15 05:10:00;;;;;;;20.3;18.3;;;;;;;9.1;100.0;102390;;;;
2022/04/15 05:11:00;;;;;;;20.3;18.3;;;;;;;9.1;100.0;102390;;;;
2022/04/15 05:12:00;;;;;;;20.3;18.3;;;;;;;9.1;100.0;102390;;;;
2022/04/15 05:13:00;;;;;;;20.3;18.3;;;;;;;9.2;100.0;102390;;;;
2022/04/15 05:14:00;;;;;;;20.3;18.3;;;;;;;9.2;100.0;102390;;;;
2022/04/15 05:15:00;;;;;;;20.3;18.3;;;;;;;9.0;100.0;102390;;;;
2022/04/15 05:16:00;;;;;;;20.3;18.3;;;;;;;9.0;100.0;102390;;;;
2022/04/15 05:17:00;;;;;;;20.3;18.3;;;;;;;9.0;100.0;102390;;;;
2022/04/15 05:18:00;;;;;;;20.3;18.3;;;;;;;9.0;100.0;102390;;;;
2022/04/15 05:19:00;;;;;;;20.3;18.3;;;;;;;9.1;100.0;102390;;;;
2022/04/15 05:20:00;;;;;;;20.3;18.3;;;;;;;9.1;100.0;102390;;;;
2022/04/15 05:21:00;;;;;;;20.3;18.3;;;;;;;8.9;100.0;102390;;;;
2022/04/15 05:22:00;;;;;;;20.3;18.3;;;;;;;8.9;100.0;102390;;;;
2022/04/15 05:23:00;;;;;;;20.3;18.3;;;;;;;9.0;100.0;102390;;;;
2022/04/15 05:24:01;;;;;;;20.3;18.3;;;;;;;9.0;100.0;102390;;;;
2022/04/15 05:25:00;;;;;;;22.5;19.2;;;;;;;9.0;100.0;102390;;;;
2022/04/15 05:26:00;;;;;;;22.5;19.2;;;;;;;9.0;100.0;102390;;;;
2022/04/15 05:27:00;;;;;;;22.5;19.2;;;;;;;9.0;100.0;102400;;;;
2022/04/15 05:28:02;;;;;;;22.5;19.2;;;;;;;9.0;100.0;102400;;;;
2022/04/15 05:29:00;;;;;;;22.5;19.2;;;;;;;9.1;100.0;102400;;;;
2022/04/15 05:30:00;;;;;;;22.5;19.2;;;;;;;9.1;100.0;102400;;;;
2022/04/15 05:31:01;;;;;;;22.5;19.2;;;;;;;9.1;100.0;102410;;;;
2022/04/15 05:32:00;;;;;;;22.5;19.2;;;;;;;9.1;100.0;102410;;;;
2022/04/15 05:33:01;;;;;;;22.5;19.2;;;;;;;9.2;100.0;102410;;;;
2022/04/15 05:34:00;;;;;;;22.5;19.2;;;;;;;9.2;100.0;102410;;;;
2022/04/15 05:35:00;;;;;;;22.5;19.2;;;;;;;9.3;100.0;102410;;;;
2022/04/15 05:36:00;;;;;;;22.5;19.2;;;;;;;9.3;100.0;102410;;;;
2022/04/15 05:37:00;;;;;;;22.5;19.2;;;;;;;9.3;100.0;102410;;;;
2022/04/15 05:38:00;;;;;;;22.5;19.2;;;;;;;9.3;100.0;102410;;;;
2022/04/15 05:39:00;;;;;;;22.5;19.2;;;;;;;9.4;100.0;102420;;;;
2022/04/15 05:40:00;;;;;;;22.5;19.2;;;;;;;9.4;100.0;102420;;;;
2022/04/15 05:41:00;;;;;;;22.5;19.2;;;;;;;9.5;100.0;102420;;;;
2022/04/15 05:42:00;;;;;;;22.5;19.2;;;;;;;9.5;100.0;102420;;;;
2022/04/15 05:43:00;;;;;;;22.5;19.2;;;;;;;9.6;100.0;102420;;;;
2022/04/15 05:44:04;;;;;;;22.5;19.2;;;;;;;9.6;100.0;102420;;;;
2022/04/15 05:45:00;;;;;;;20.4;18.1;;;;;;;9.4;100.0;102420;;;;
2022/04/15 05:46:00;;;;;;;20.4;18.1;;;;;;;9.4;100.0;102420;;;;
2022/04/15 05:47:00;;;;;;;20.4;18.1;;;;;;;9.4;100.0;102420;;;;
2022/04/15 05:48:00;;;;;;;20.4;18.1;;;;;;;9.4;100.0;102420;;;;
2022/04/15 05:49:00;;;;;;;20.4;18.1;;;;;;;9.4;100.0;102430;;;;
2022/04/15 05:50:03;;;;;;;20.4;18.1;;;;;;;9.4;100.0;102430;;;;
2022/04/15 05:51:00;;;;;;;20.4;18.1;;;;;;;9.4;100.0;102430;;;;
2022/04/15 05:52:01;;;;;;;20.4;18.1;;;;;;;9.4;100.0;102430;;;;
2022/04/15 05:53:00;;;;;;;20.4;18.1;;;;;;;9.4;100.0;102430;;;;
2022/04/15 05:54:00;;;;;;;20.4;18.1;;;;;;;9.4;100.0;102430;;;;
2022/04/15 05:55:00;;;;;;;20.4;18.1;;;;;;;9.5;100.0;102440;;;;
2022/04/15 05:56:00;;;;;;;20.4;18.1;;;;;;;9.5;100.0;102440;;;;
2022/04/15 05:57:00;;;;;;;20.4;18.1;;;;;;;9.5;100.0;102440;;;;
2022/04/15 05:58:00;;;;;;;20.4;18.1;;;;;;;9.5;100.0;102440;;;;
2022/04/15 05:59:00;;;;;;;20.4;18.1;;;;;;;9.5;100.0;102440;;;;
2022/04/15 06:00:00;;;;;;;20.4;18.1;;;;;;;9.5;100.0;102440;;;;
2022/04/15 06:01:00;;;;;;;20.4;18.1;;;;;;;9.3;100.0;102450;;;;
2022/04/15 06:02:00;;;;;;;20.4;18.1;;;;;;;9.3;100.0;102450;;;;
2022/04/15 06:03:00;;;;;;;20.4;18.1;;;;;;;9.4;100.0;102450;;;;
2022/04/15 06:04:00;;;;;;;20.4;18.1;;;;;;;9.4;100.0;102450;;;;
2022/04/15 06:05:00;;;;;;;19.7;17.6;;;;;;;9.5;100.0;102450;;;;
2022/04/15 06:06:01;;;;;;;19.7;17.6;;;;;;;9.5;100.0;102450;;;;
2022/04/15 06:07:00;;;;;;;19.7;17.6;;;;;;;9.4;100.0;102450;;;;
2022/04/15 06:08:00;;;;;;;19.7;17.6;;;;;;;9.4;100.0;102450;;;;
2022/04/15 06:09:00;;;;;;;19.7;17.6;;;;;;;9.4;100.0;102460;;;;
2022/04/15 06:10:00;;;;;;;19.7;17.6;;;;;;;9.4;100.0;102460;;;;
2022/04/15 06:11:00;;;;;;;19.7;17.6;;;;;;;9.2;100.0;102460;;;;
2022/04/15 06:12:00;;;;;;;19.7;17.6;;;;;;;9.2;100.0;102460;;;;
2022/04/15 06:13:03;;;;;;;19.7;17.6;;;;;;;9.3;100.0;102460;;;;
2022/04/15 06:14:03;;;;;;;19.7;17.6;;;;;;;9.3;100.0;102460;;;;